Time;durP1;ratioP1;P1;durP2;ratioP2;P2;SDS_P1;SDS_P2;PMS_P1;PMS_P2;Temp;Humidity;BMP_temperature;BMP_pressure;BME280_temperature;BME280_humidity;BME280_pressure;Samples;Min_cycle;Max_cycle;Signal;HPM_P1;HPM_P2
2022/11/01 00:00:23;;;;;;;7.45;3.40;;;;;;;21.58;64.16;99423.38;2070298;28;20735;-55
2022/11/01 00:01:24;;;;;;;4.25;2.72;;;;;;;21.58;64.00;99420.66;2068302;28;20045;-49
2022/11/01 00:02:25;;;;;;;;;;;;;;;21.49;64.31;99419.19;2070098;28;20767;-55
2022/11/01 00:03:26;;;;;;;4.15;3.05;;;;;;;21.51;64.32;99421.72;2068425;28;19944;-54
2022/11/01 00:04:28;;;;;;;5.55;3.13;;;;;;;21.53;64.03;99416.91;2064366;28;20047;-51
2022/11/01 00:05:29;;;;;;;4.40;2.90;;;;;;;21.55;64.12;99415.69;2071555;28;20038;-55
2022/11/01 00:06:30;;;;;;;5.07;3.10;;;;;;;21.58;63.89;99419.84;2067689;28;20057;-55
2022/11/01 00:07:31;;;;;;;2.70;2.30;;;;;;;21.57;63.91;99416.31;2068763;28;20622;-54
2022/11/01 00:08:33;;;;;;;3.70;2.67;;;;;;;21.57;64.15;99413.63;2066953;28;20049;-56
2022/11/01 00:09:34;;;;;;;5.68;2.90;;;;;;;21.58;64.12;99415.28;2068703;28;20187;-54
2022/11/01 00:10:37;;;;;;;;;;;;;;;21.48;64.24;99414.84;2067252;28;20124;-56
2022/11/01 00:11:37;;;;;;;4.20;2.67;;;;;;;21.50;64.37;99410.06;2068614;28;19929;-52
2022/11/01 00:12:40;;;;;;;;;;;;;;;21.44;64.45;99412.75;2068758;28;20056;-55
2022/11/01 00:13:40;;;;;;;5.60;3.42;;;;;;;21.48;64.41;99411.28;2068109;28;19921;-51
2022/11/01 00:14:42;;;;;;;;;;;;;;;21.42;64.39;99410.25;2068741;28;20075;-53
2022/11/01 00:15:43;;;;;;;;;;;;;;;21.36;64.66;99411.03;2068468;28;20485;-52
2022/11/01 00:16:44;;;;;;;5.17;3.10;;;;;;;21.42;64.66;99412.94;2069308;28;20011;-55
2022/11/01 00:17:45;;;;;;;4.75;2.72;;;;;;;21.47;64.20;99413.16;2075763;28;21024;-48
2022/11/01 00:18:47;;;;;;;7.22;3.17;;;;;;;21.49;64.15;99419.19;2075003;28;20049;-53
2022/11/01 00:19:48;;;;;;;5.50;3.10;;;;;;;21.50;64.13;99407.38;2075705;28;20084;-54
2022/11/01 00:20:49;;;;;;;;;;;;;;;21.45;64.35;99412.53;2074008;28;20510;-54
2022/11/01 00:21:50;;;;;;;;;;;;;;;21.36;64.45;99408.34;2076979;28;20543;-55
2022/11/01 00:22:52;;;;;;;4.90;3.55;;;;;;;21.43;64.38;99411.94;2075039;28;19968;-53
2022/11/01 00:23:53;;;;;;;4.22;2.53;;;;;;;21.47;64.20;99410.47;2072172;28;20402;-53
2022/11/01 00:24:54;;;;;;;4.80;3.30;;;;;;;21.50;64.09;99412.75;2075188;28;20051;-55
2022/11/01 00:25:59;;;;;;;5.43;3.13;;;;;;;21.53;64.20;99416.91;2075892;28;20136;-48
2022/11/01 00:27:01;;;;;;;4.72;2.60;;;;;;;21.52;63.95;99418.78;2074434;28;20045;-53
2022/11/01 00:28:02;;;;;;;6.18;3.28;;;;;;;21.53;64.04;99417.75;2075856;28;20057;-53
2022/11/01 00:29:03;;;;;;;;;;;;;;;21.46;64.28;99416.09;2074070;28;22262;-55
2022/11/01 00:30:05;;;;;;;4.40;2.42;;;;;;;21.47;64.11;99417.75;2073910;28;19968;-52
2022/11/01 00:31:07;;;;;;;6.38;2.95;;;;;;;21.48;64.25;99414.84;2074827;28;20060;-49
2022/11/01 00:32:08;;;;;;;4.55;2.80;;;;;;;21.50;64.10;99411.94;2069402;28;20072;-49
2022/11/01 00:33:09;;;;;;;8.98;3.30;;;;;;;21.52;64.32;99413.41;2067221;28;20073;-51
2022/11/01 00:34:10;;;;;;;8.00;3.97;;;;;;;21.52;64.20;99412.56;2069274;28;20049;-57
2022/11/01 00:35:12;;;;;;;7.13;4.07;;;;;;;21.52;64.02;99415.28;2067874;28;20123;-54
2022/11/01 00:36:13;;;;;;;5.57;3.03;;;;;;;21.51;63.84;99403.66;2071712;28;20457;-56
2022/11/01 00:37:15;;;;;;;4.38;2.90;;;;;;;21.53;64.14;99415.03;2068967;28;20060;-55
2022/11/01 00:38:17;;;;;;;8.68;3.03;;;;;;;21.54;63.78;99418.59;2066088;28;20073;-49
2022/11/01 00:39:19;;;;;;;5.60;2.88;;;;;;;21.53;63.97;99412.34;2066358;28;20077;-48
2022/11/01 00:40:20;;;;;;;5.13;2.95;;;;;;;21.52;63.89;99416.09;2067593;28;20053;-51
2022/11/01 00:41:23;;;;;;;5.50;2.70;;;;;;;21.53;64.13;99414.22;2066293;28;20681;-56
2022/11/01 00:42:24;;;;;;;4.53;3.03;;;;;;;21.53;63.93;99419.63;2068205;28;20551;-55
2022/11/01 00:43:25;;;;;;;;;;;;;;;21.45;64.36;99427.91;2068766;28;20064;-52
2022/11/01 00:44:26;;;;;;;;;;;;;;;21.37;64.30;99418.16;2069498;28;19925;-48
2022/11/01 00:45:28;;;;;;;5.65;2.80;;;;;;;21.39;64.18;99416.06;2067447;28;19921;-50
2022/11/01 00:46:29;;;;;;;5.07;2.58;;;;;;;21.46;64.20;99422.31;2070777;28;20052;-53
2022/11/01 00:47:31;;;;;;;4.22;2.65;;;;;;;21.48;64.13;99420.25;2068440;28;20111;-56
2022/11/01 00:48:32;;;;;;;3.50;2.70;;;;;;;21.50;63.99;99417.34;2067835;28;20893;-56
2022/11/01 00:49:33;;;;;;;5.13;3.65;;;;;;;21.49;64.08;99416.50;2070100;28;20061;-51
2022/11/01 00:50:34;;;;;;;3.22;2.85;;;;;;;21.50;64.04;99418.16;2068159;28;20045;-52
2022/11/01 00:51:36;;;;;;;4.38;2.90;;;;;;;21.51;63.94;99417.16;2067181;28;20053;-55
2022/11/01 00:52:37;;;;;;;4.00;2.75;;;;;;;21.52;63.77;99415.28;2069713;28;20627;-51
2022/11/01 00:53:38;;;;;;;;;;;;;;;21.43;64.13;99414.63;2067839;28;20045;-53
2022/11/01 00:54:39;;;;;;;3.55;2.95;;;;;;;21.47;64.24;99415.88;2068124;28;20545;-52
2022/11/01 00:55:41;;;;;;;4.32;2.42;;;;;;;21.47;64.21;99418.56;2067516;28;20041;-50
2022/11/01 00:56:43;;;;;;;3.58;2.50;;;;;;;21.49;64.12;99421.91;2069307;28;20054;-50
2022/11/01 00:57:45;;;;;;;8.93;3.53;;;;;;;21.50;63.97;99426.25;2064808;28;20037;-52
2022/11/01 00:58:46;;;;;;;5.68;3.05;;;;;;;21.51;63.99;99427.13;2068278;28;20045;-52
2022/11/01 00:59:48;;;;;;;6.80;3.40;;;;;;;21.51;63.99;99430.63;2067253;28;20674;-49
2022/11/01 01:00:49;;;;;;;6.80;3.28;;;;;;;21.51;64.05;99425.25;2070666;28;20052;-52
2022/11/01 01:01:50;;;;;;;6.28;3.30;;;;;;;21.52;63.87;99428.75;2059939;28;20053;-50
2022/11/01 01:02:51;;;;;;;3.55;3.05;;;;;;;21.51;63.91;99429.81;2066358;28;20072;-50
2022/11/01 01:03:53;;;;;;;4.15;2.95;;;;;;;21.52;64.02;99428.75;2067664;28;20698;-51
2022/11/01 01:04:54;;;;;;;4.53;2.90;;;;;;;21.51;63.96;99430.63;2065998;28;20523;-52
2022/11/01 01:05:55;;;;;;;5.28;3.20;;;;;;;21.50;63.91;99422.72;2068167;28;20045;-51
2022/11/01 01:06:56;;;;;;;4.03;2.92;;;;;;;21.50;63.86;99423.56;2069740;28;20057;-52
2022/11/01 01:07:58;;;;;;;6.18;3.05;;;;;;;21.51;63.96;99422.53;2073287;28;20052;-52
2022/11/01 01:08:59;;;;;;;3.33;2.47;;;;;;;21.51;63.64;99417.16;2075160;28;20050;-51
2022/11/01 01:10:01;;;;;;;7.38;2.83;;;;;;;21.51;63.96;99425.25;2068928;28;20173;-51
2022/11/01 01:11:02;;;;;;;7.05;3.67;;;;;;;21.51;63.86;99425.25;2067276;28;20057;-52
2022/11/01 01:12:06;;;;;;;6.25;3.50;;;;;;;21.49;63.75;99419.19;2066994;28;20055;-49
2022/11/01 01:13:07;;;;;;;4.75;3.00;;;;;;;21.49;64.01;99426.47;2065985;28;20132;-51
2022/11/01 01:14:09;;;;;;;6.13;3.63;;;;;;;21.50;63.73;99417.34;2068668;28;20125;-52
2022/11/01 01:15:10;;;;;;;6.88;3.00;;;;;;;21.50;63.73;99417.34;2068442;28;20045;-51
2022/11/01 01:16:13;;;;;;;4.00;2.60;;;;;;;21.50;63.88;99415.47;2067919;28;20543;-49
2022/11/01 01:17:14;;;;;;;4.22;2.50;;;;;;;21.49;63.80;99421.91;2064779;28;20045;-52
2022/11/01 01:18:16;;;;;;;3.85;2.45;;;;;;;21.50;63.87;99422.72;2066452;28;20060;-51
2022/11/01 01:19:17;;;;;;;6.07;3.72;;;;;;;21.49;63.60;99411.09;2066773;28;20077;-52
2022/11/01 01:20:20;;;;;;;4.70;2.38;;;;;;;21.49;63.83;99419.19;2069053;28;20050;-52
2022/11/01 01:21:20;;;;;;;5.72;3.53;;;;;;;21.50;63.98;99418.16;2067482;28;20048;-50
2022/11/01 01:22:22;;;;;;;3.72;2.63;;;;;;;21.50;63.88;99418.16;2067872;28;20075;-52
2022/11/01 01:23:23;;;;;;;5.53;3.22;;;;;;;21.49;63.80;99419.19;2070959;28;20045;-50
2022/11/01 01:24:24;;;;;;;;;;;;;;;21.40;63.94;99420.44;2067832;28;20145;-50
2022/11/01 01:25:25;;;;;;;2.63;2.15;;;;;;;21.42;64.18;99421.91;2073352;28;19932;-53
2022/11/01 01:26:27;;;;;;;4.13;2.60;;;;;;;21.46;63.89;99416.09;2068632;28;20045;-51
2022/11/01 01:27:29;;;;;;;5.60;2.75;;;;;;;21.47;63.95;99418.56;2067888;28;20517;-52
2022/11/01 01:28:31;;;;;;;4.10;2.97;;;;;;;21.46;63.84;99411.53;2069762;28;20049;-52
2022/11/01 01:29:32;;;;;;;4.15;2.60;;;;;;;21.48;63.92;99414.84;2068563;28;20140;-50
2022/11/01 01:30:34;;;;;;;4.63;3.05;;;;;;;21.47;63.85;99412.34;2068711;28;21881;-51
2022/11/01 01:31:34;;;;;;;5.47;3.22;;;;;;;21.49;63.64;99416.50;2067036;28;20045;-51
2022/11/01 01:32:36;;;;;;;;;;;;;;;21.38;63.85;99414.41;2070048;28;20050;-50
2022/11/01 01:33:37;;;;;;;;;;;;;;;21.30;64.05;99409.97;2069027;28;19925;-52
2022/11/01 01:34:38;;;;;;;6.30;3.10;;;;;;;21.35;64.08;99410.19;2066401;28;20001;-52
2022/11/01 01:35:39;;;;;;;6.03;3.35;;;;;;;21.39;64.13;99411.47;2067492;28;20065;-50
2022/11/01 01:36:41;;;;;;;;;;;;;;;21.33;63.90;99414.13;2069856;28;20045;-50
2022/11/01 01:37:41;;;;;;;;;;;;;;;21.28;64.27;99413.91;2064844;28;19925;-51
2022/11/01 01:38:44;;;;;;;4.65;3.15;;;;;;;21.33;64.10;99416.84;2073092;28;20321;-50
2022/11/01 01:39:44;;;;;;;4.18;3.17;;;;;;;21.38;63.80;99415.22;2067450;28;20054;-53
2022/11/01 01:40:46;;;;;;;4.40;3.17;;;;;;;21.41;63.93;99412.13;2069389;28;20057;-53
2022/11/01 01:41:56;;;;;;;7.30;3.65;;;;;;;21.44;63.73;99413.59;2069446;28;20064;-51
2022/11/01 01:42:59;;;;;;;3.88;2.55;;;;;;;21.42;63.78;99405.69;2069060;28;20073;-52
2022/11/01 01:44:00;;;;;;;5.10;3.13;;;;;;;21.44;63.62;99413.59;2067058;28;20903;-50
2022/11/01 01:45:19;;;;;;;5.18;3.50;;;;;;;21.43;63.87;99411.94;2063925;28;20052;-52
2022/11/01 01:46:20;;;;;;;4.25;2.70;;;;;;;21.42;63.74;99404.84;2066925;28;20214;-51
2022/11/01 01:47:24;;;;;;;4.97;3.05;;;;;;;21.43;63.98;99406.53;2064963;28;20060;-50
2022/11/01 01:48:26;;;;;;;6.70;3.05;;;;;;;21.44;63.46;99402.78;2066928;28;20385;-51
2022/11/01 01:49:28;;;;;;;4.10;2.88;;;;;;;21.44;63.79;99413.59;2066764;28;20048;-51
2022/11/01 01:50:33;;;;;;;5.32;2.78;;;;;;;21.45;63.84;99400.91;2068395;28;20502;-50
2022/11/01 01:51:35;;;;;;;4.50;3.35;;;;;;;21.44;63.72;99407.34;2065125;28;20671;-52
2022/11/01 01:52:42;;;;;;;4.38;3.58;;;;;;;21.44;63.54;99410.06;2065080;28;20064;-52
2022/11/01 01:53:47;;;;;;;4.90;2.92;;;;;;;21.44;63.55;99404.66;2068194;28;23469;-49
2022/11/01 01:54:49;;;;;;;7.88;3.40;;;;;;;21.44;63.56;99405.47;2067784;28;20054;-51
2022/11/01 01:55:56;;;;;;;7.22;3.55;;;;;;;21.44;63.73;99405.47;2064779;28;20327;-53
2022/11/01 01:56:58;;;;;;;4.57;2.95;;;;;;;21.44;63.82;99401.97;2067160;28;20053;-52
2022/11/01 01:58:01;;;;;;;5.47;3.65;;;;;;;21.45;63.75;99398.22;2067015;28;20089;-51
2022/11/01 01:59:05;;;;;;;4.82;3.03;;;;;;;21.45;63.53;99399.03;2067475;28;20042;-52
2022/11/01 02:00:08;;;;;;;4.75;2.85;;;;;;;21.44;63.55;99397.38;2066710;28;20057;-54
2022/11/01 02:01:11;;;;;;;4.28;3.17;;;;;;;21.44;63.59;99397.38;2066681;28;20052;-52
2022/11/01 02:02:12;;;;;;;4.75;2.80;;;;;;;21.45;63.44;99395.50;2064897;28;20057;-52
2022/11/01 02:03:15;;;;;;;3.50;2.67;;;;;;;21.45;63.57;99395.50;2066937;28;20430;-53
2022/11/01 02:04:21;;;;;;;6.47;3.20;;;;;;;21.45;63.30;99390.94;2067081;28;20049;-48
2022/11/01 02:05:31;;;;;;;4.18;3.58;;;;;;;21.43;63.58;99393.03;2066180;28;20045;-51
2022/11/01 02:06:34;;;;;;;7.20;3.95;;;;;;;21.41;63.59;99382.44;2059070;28;20042;-51
2022/11/01 02:07:35;;;;;;;3.90;3.10;;;;;;;21.42;63.60;99385.97;2066093;28;20054;-52
2022/11/01 02:08:37;;;;;;;;;;;;;;;21.33;63.77;99390.69;2068084;28;20133;-51
2022/11/01 02:09:39;;;;;;;5.18;3.03;;;;;;;21.36;63.90;99389.44;2070405;28;19947;-53
2022/11/01 02:10:41;;;;;;;5.35;3.28;;;;;;;21.38;63.81;99384.72;2065680;28;20045;-53
2022/11/01 02:11:42;;;;;;;7.43;3.42;;;;;;;21.42;63.51;99380.56;2067154;28;20045;-50
2022/11/01 02:12:46;;;;;;;6.68;3.63;;;;;;;21.41;63.48;99376.22;2066220;28;20064;-50
2022/11/01 02:13:50;;;;;;;4.70;3.05;;;;;;;21.44;63.47;99383.88;2066296;28;20065;-50
2022/11/01 02:14:50;;;;;;;5.28;3.65;;;;;;;21.43;63.47;99376.84;2068235;28;20457;-50
2022/11/01 02:16:04;;;;;;;;;;;;;;;21.32;63.77;99385.50;2068174;28;20060;-53
2022/11/01 02:17:11;;;;;;;5.50;3.45;;;;;;;21.35;63.59;99377.00;2065100;28;19929;-52
2022/11/01 02:18:21;;;;;;;6.45;3.75;;;;;;;21.37;63.53;99383.06;2067298;28;20559;-51
2022/11/01 02:19:47;;;;;;;6.70;3.33;;;;;;;21.35;63.66;99383.22;2067553;28;20052;-52
2022/11/01 02:21:22;;;;;;;6.57;2.97;;;;;;;21.33;63.89;99379.88;2072392;28;20469;-51
2022/11/01 02:22:36;;;;;;;4.55;2.90;;;;;;;21.34;63.70;99378.00;2064771;28;20398;-51
2022/11/01 02:24:00;;;;;;;7.85;3.55;;;;;;;21.35;63.64;99387.78;2071230;28;21321;-50
2022/11/01 02:25:09;;;;;;;5.85;3.40;;;;;;;21.35;63.88;99380.53;2072099;28;20053;-51
2022/11/01 02:26:45;;;;;;;8.20;3.42;;;;;;;21.34;63.59;99383.41;2065764;28;20046;-51
2022/11/01 02:28:05;;;;;;;7.03;3.58;;;;;;;21.33;63.59;99382.59;2069907;28;21489;-50
2022/11/01 02:29:16;;;;;;;4.88;3.50;;;;;;;21.33;63.56;99382.59;2072153;28;20050;-52
2022/11/01 02:30:20;;;;;;;4.75;3.63;;;;;;;21.34;63.51;99376.16;2069052;28;20184;-52
2022/11/01 02:31:39;;;;;;;7.00;3.47;;;;;;;21.36;63.74;99384.03;2067672;28;20595;-51
2022/11/01 02:33:13;;;;;;;8.30;3.35;;;;;;;21.34;63.81;99380.72;2068162;28;20072;-52
2022/11/01 02:34:23;;;;;;;5.68;3.63;;;;;;;21.34;63.38;99375.31;2070998;28;20056;-52
2022/11/01 02:35:32;;;;;;;6.53;3.63;;;;;;;21.35;63.59;99383.22;2075146;28;20079;-51
2022/11/01 02:36:39;;;;;;;6.25;4.07;;;;;;;21.35;63.41;99377.00;2073351;28;20146;-52
2022/11/01 02:37:50;;;;;;;6.65;4.00;;;;;;;21.35;63.63;99382.41;2071439;28;20080;-50
2022/11/01 02:38:56;;;;;;;5.25;3.72;;;;;;;21.36;63.44;99375.94;2075634;28;20061;-51
2022/11/01 02:40:05;;;;;;;4.45;3.33;;;;;;;21.36;63.54;99370.56;2076193;28;20041;-50
2022/11/01 02:41:11;;;;;;;7.68;3.60;;;;;;;21.37;63.39;99374.97;2077192;28;20049;-50
2022/11/01 02:42:18;;;;;;;7.25;4.72;;;;;;;21.36;63.27;99370.56;2077272;28;20128;-50
2022/11/01 02:43:25;;;;;;;7.10;3.38;;;;;;;21.35;63.28;99369.72;2076747;28;20076;-52
2022/11/01 02:44:31;;;;;;;5.03;4.35;;;;;;;21.36;63.64;99367.84;2071976;28;20459;-53
2022/11/01 02:45:36;;;;;;;6.30;4.38;;;;;;;21.33;63.44;99369.09;2071880;28;20053;-50
2022/11/01 02:48:01;;;;;;;4.93;3.45;;;;;;;21.33;63.46;99368.25;2069265;28;20049;-51
2022/11/01 02:49:04;;;;;;;7.03;3.95;;;;;;;21.34;63.68;99364.53;2074178;28;20057;-51
2022/11/01 02:50:10;;;;;;;3.90;3.08;;;;;;;21.35;63.51;99371.59;2073205;28;20045;-49
2022/11/01 02:51:12;;;;;;;7.93;3.80;;;;;;;21.35;63.39;99369.72;2076382;28;20052;-52
2022/11/01 02:52:18;;;;;;;7.35;3.85;;;;;;;21.37;63.48;99370.41;2074240;28;20497;-49
2022/11/01 02:53:19;;;;;;;8.50;4.38;;;;;;;21.35;63.58;99371.59;2076025;28;20047;-48
2022/11/01 02:54:22;;;;;;;6.25;4.50;;;;;;;21.36;63.38;99373.25;2074044;28;20511;-52
2022/11/01 02:55:29;;;;;;;7.20;4.10;;;;;;;21.37;63.25;99380.38;2073971;28;20045;-53
2022/11/01 02:56:31;;;;;;;8.55;4.38;;;;;;;21.35;63.34;99367.03;2075650;28;20057;-51
2022/11/01 02:57:35;;;;;;;8.00;4.18;;;;;;;21.36;63.50;99370.56;2073779;28;20064;-51
2022/11/01 02:58:38;;;;;;;7.38;4.70;;;;;;;21.36;63.42;99370.56;2075424;28;20482;-49
2022/11/01 02:59:43;;;;;;;8.85;5.07;;;;;;;21.35;63.23;99369.72;2073851;28;20053;-49
2022/11/01 03:00:44;;;;;;;6.32;4.13;;;;;;;21.36;63.38;99367.84;2074099;28;20132;-52
2022/11/01 03:01:52;;;;;;;7.13;4.35;;;;;;;21.34;63.37;99362.69;2071988;28;20156;-51
2022/11/01 03:03:00;;;;;;;5.95;3.92;;;;;;;21.35;63.61;99360.81;2075633;28;20060;-51
2022/11/01 03:04:03;;;;;;;7.07;4.57;;;;;;;21.34;63.45;99361.81;2072723;28;20080;-51
2022/11/01 03:05:07;;;;;;;8.88;4.47;;;;;;;21.35;63.38;99363.50;2074052;28;20081;-52
2022/11/01 03:06:13;;;;;;;6.93;4.50;;;;;;;21.35;63.26;99367.03;2072152;28;20706;-51
2022/11/01 03:07:17;;;;;;;8.73;4.25;;;;;;;21.35;63.32;99364.34;2074521;28;20128;-50
2022/11/01 03:08:21;;;;;;;8.40;5.32;;;;;;;21.35;63.47;99366.19;2071822;28;20152;-53
2022/11/01 03:09:23;;;;;;;7.63;4.22;;;;;;;21.33;63.24;99361.00;2074043;28;20643;-50
2022/11/01 03:10:33;;;;;;;7.32;4.68;;;;;;;21.35;63.42;99360.81;2074262;28;20046;-51
2022/11/01 03:11:46;;;;;;;8.32;4.80;;;;;;;21.33;63.48;99366.41;2072545;28;20077;-51
2022/11/01 03:12:57;;;;;;;6.03;4.28;;;;;;;21.32;63.49;99355.81;2074273;28;20963;-50
2022/11/01 03:14:06;;;;;;;7.70;4.60;;;;;;;21.32;63.61;99361.22;2073771;28;20060;-50
2022/11/01 03:15:19;;;;;;;7.15;4.60;;;;;;;21.32;63.52;99366.63;2073468;28;20065;-50
2022/11/01 03:16:30;;;;;;;5.05;3.95;;;;;;;21.31;63.43;99364.94;2073168;28;20041;-51
2022/11/01 03:17:32;;;;;;;;;;;;;;;21.20;63.66;99364.50;2074289;28;20049;-51
2022/11/01 03:18:39;;;;;;;8.23;4.32;;;;;;;21.24;63.54;99358.69;2073709;28;20008;-50
2022/11/01 03:19:46;;;;;;;6.88;4.63;;;;;;;21.26;63.48;99360.16;2074556;28;23960;-49
2022/11/01 03:20:58;;;;;;;7.72;5.45;;;;;;;21.29;63.50;99367.03;2072709;28;20137;-51
2022/11/01 03:22:04;;;;;;;6.40;4.60;;;;;;;21.30;63.42;99369.50;2073369;28;20110;-48
2022/11/01 03:23:07;;;;;;;8.20;5.18;;;;;;;21.31;63.41;99362.22;2071706;28;20104;-49
2022/11/01 03:24:17;;;;;;;9.32;5.20;;;;;;;21.31;63.49;99364.94;2073569;28;20049;-50
2022/11/01 03:25:39;;;;;;;6.53;4.22;;;;;;;21.29;63.43;99365.16;2075492;28;20045;-51
2022/11/01 03:26:42;;;;;;;7.00;4.82;;;;;;;21.28;63.21;99366.16;2075501;28;20556;-50
2022/11/01 03:27:46;;;;;;;7.95;5.40;;;;;;;21.27;63.49;99359.13;2074303;28;20075;-51
2022/11/01 03:28:52;;;;;;;9.40;5.55;;;;;;;21.30;63.69;99355.19;2074340;28;20050;-53
2022/11/01 03:29:59;;;;;;;8.18;5.00;;;;;;;21.30;63.52;99364.09;2072052;28;20061;-52
2022/11/01 03:31:05;;;;;;;8.77;4.75;;;;;;;21.30;63.42;99366.81;2073275;28;20060;-54
2022/11/01 03:32:08;;;;;;;9.25;5.00;;;;;;;21.30;63.28;99364.09;2071602;28;20536;-50
2022/11/01 03:33:12;;;;;;;8.77;5.43;;;;;;;21.28;63.40;99362.63;2074280;28;20053;-52
2022/11/01 03:34:16;;;;;;;10.80;4.80;;;;;;;21.30;63.62;99369.50;2074406;28;20489;-49
2022/11/01 03:35:22;;;;;;;10.15;5.53;;;;;;;21.31;63.40;99370.31;2072523;28;20053;-51
2022/11/01 03:36:27;;;;;;;8.90;4.75;;;;;;;21.31;63.34;99371.19;2074444;28;20050;-53
2022/11/01 03:37:31;;;;;;;7.63;5.40;;;;;;;21.32;63.26;99372.00;2074730;28;20046;-50
2022/11/01 03:38:37;;;;;;;6.63;4.55;;;;;;;21.31;63.45;99370.31;2074491;28;20050;-51
2022/11/01 03:39:42;;;;;;;8.77;4.93;;;;;;;21.31;63.10;99370.31;2073852;28;20049;-51
2022/11/01 03:40:50;;;;;;;8.63;5.13;;;;;;;21.29;63.21;99361.63;2074310;28;20056;-50
2022/11/01 03:41:57;;;;;;;9.25;5.88;;;;;;;21.29;63.35;99372.41;2073207;28;20053;-51
2022/11/01 03:43:05;;;;;;;9.63;5.80;;;;;;;21.30;63.43;99369.50;2075105;28;20537;-51
2022/11/01 03:44:07;;;;;;;6.35;4.75;;;;;;;21.28;63.58;99366.16;2073117;28;20061;-51
2022/11/01 03:45:13;;;;;;;7.35;5.00;;;;;;;21.29;63.40;99369.72;2074601;28;20667;-52
2022/11/01 03:46:14;;;;;;;9.80;5.13;;;;;;;21.28;63.46;99368.88;2075228;28;20056;-51
2022/11/01 03:47:16;;;;;;;11.77;4.97;;;;;;;21.28;63.47;99366.16;2077352;28;20584;-50
2022/11/01 03:48:17;;;;;;;6.53;4.82;;;;;;;21.29;63.40;99375.94;2075186;28;20045;-51
2022/11/01 03:49:19;;;;;;;;;;;;;;;21.20;63.43;99369.03;2075777;28;20044;-50
2022/11/01 03:50:24;;;;;;;7.20;4.22;;;;;;;21.23;63.74;99370.50;2075080;28;20669;-53
2022/11/01 03:51:25;;;;;;;7.00;5.53;;;;;;;21.24;63.40;99375.72;2075453;28;20049;-50
2022/11/01 03:52:27;;;;;;;;;;;;;;;21.16;63.71;99379.41;2075972;28;20055;-49
2022/11/01 03:53:27;;;;;;;;;;;;;;;21.10;63.75;99377.53;2074689;28;19921;-50
2022/11/01 03:54:29;;;;;;;6.35;5.18;;;;;;;21.15;63.93;99383.16;2076208;28;19943;-53
2022/11/01 03:55:30;;;;;;;11.27;5.95;;;;;;;21.20;63.73;99372.59;2076082;28;20053;-51
2022/11/01 03:56:32;;;;;;;9.05;4.82;;;;;;;21.23;63.54;99384.00;2074745;28;20464;-53
2022/11/01 03:57:33;;;;;;;9.35;5.28;;;;;;;21.25;63.35;99376.53;2074666;28;20060;-51
2022/11/01 03:58:44;;;;;;;;;;;;;;;21.18;63.63;99379.22;2074784;28;20263;-50
2022/11/01 03:59:45;;;;;;;8.07;4.93;;;;;;;21.19;63.52;99376.31;2075220;28;19932;-51
2022/11/01 04:00:47;;;;;;;9.82;5.70;;;;;;;21.22;63.77;99387.75;2073927;28;20055;-50
2022/11/01 04:01:48;;;;;;;14.55;5.78;;;;;;;21.25;63.46;99382.75;2073838;28;20053;-52
2022/11/01 04:02:50;;;;;;;;;;;;;;;21.17;63.73;99383.81;2074717;28;20057;-51
2022/11/01 04:03:51;;;;;;;8.52;4.97;;;;;;;21.18;63.87;99390.84;2075591;28;19925;-51
2022/11/01 04:04:52;;;;;;;;;;;;;;;21.13;63.82;99387.09;2077331;28;20413;-51
2022/11/01 04:05:55;;;;;;;7.97;5.47;;;;;;;21.16;63.81;99390.22;2075475;28;19929;-52
2022/11/01 04:06:56;;;;;;;9.15;5.38;;;;;;;21.19;63.55;99389.81;2074530;28;20060;-51
2022/11/01 04:07:57;;;;;;;6.10;5.30;;;;;;;21.21;63.57;99392.31;2075362;28;20615;-52
2022/11/01 04:08:59;;;;;;;6.68;5.05;;;;;;;21.24;63.60;99391.06;2075852;28;20045;-50
2022/11/01 04:10:00;;;;;;;9.45;5.68;;;;;;;21.25;63.53;99393.56;2075886;28;20064;-50
2022/11/01 04:11:02;;;;;;;11.52;5.82;;;;;;;21.25;63.51;99392.72;2073780;28;20041;-52
2022/11/01 04:12:03;;;;;;;8.63;5.43;;;;;;;21.26;63.55;99397.13;2074168;28;20056;-55
2022/11/01 04:13:05;;;;;;;6.50;4.80;;;;;;;21.25;63.38;99398.13;2075090;28;20049;-51
2022/11/01 04:20:42;;;;;;;11.20;5.75;;;;;;;21.15;63.90;99399.34;2074800;28;20301;-53
2022/11/01 04:21:46;;;;;;;8.50;5.68;;;;;;;21.19;63.71;99407.84;2074841;28;20061;-53
2022/11/01 04:22:48;;;;;;;7.63;5.18;;;;;;;21.20;63.80;99407.66;2074742;28;20060;-51
2022/11/01 04:23:50;;;;;;;8.15;5.00;;;;;;;21.22;63.60;99412.03;2075701;28;20059;-50
2022/11/01 04:24:50;;;;;;;6.57;4.72;;;;;;;21.23;63.53;99410.97;2073444;28;20049;-51
2022/11/01 04:25:52;;;;;;;7.85;4.95;;;;;;;21.24;63.46;99409.97;2075555;28;20059;-50
2022/11/01 04:26:54;;;;;;;8.43;5.70;;;;;;;21.24;63.32;99408.09;2074399;28;20144;-50
2022/11/01 04:27:55;;;;;;;8.82;4.90;;;;;;;21.24;63.36;99409.97;2073688;28;20052;-51
2022/11/01 04:28:57;;;;;;;7.85;4.95;;;;;;;21.25;63.61;99408.91;2073769;28;20125;-52
2022/11/01 04:29:58;;;;;;;9.30;5.55;;;;;;;21.25;63.11;99408.91;2070262;28;20448;-52
2022/11/01 04:31:00;;;;;;;;;;;;;;;21.16;63.45;99405.56;2074345;28;20136;-49
2022/11/01 04:32:01;;;;;;;;;;;;;;;21.08;63.93;99414.66;2075882;28;19925;-49
2022/11/01 04:33:03;;;;;;;7.63;4.65;;;;;;;21.13;63.75;99409.50;2075835;28;19928;-51
2022/11/01 04:34:04;;;;;;;8.38;5.85;;;;;;;21.15;63.65;99404.75;2075193;28;20056;-52
2022/11/01 04:35:07;;;;;;;;;;;;;;;21.11;63.69;99416.94;2074206;28;20128;-50
2022/11/01 04:36:08;;;;;;;10.65;5.35;;;;;;;21.15;63.50;99417.41;2071910;28;20493;-50
2022/11/01 04:37:12;;;;;;;7.63;5.57;;;;;;;21.16;63.58;99416.34;2066718;28;20050;-51
2022/11/01 04:38:13;;;;;;;6.38;4.38;;;;;;;21.18;63.46;99422.41;2065949;28;20452;-50
2022/11/01 04:39:15;;;;;;;7.18;5.20;;;;;;;21.20;63.27;99409.50;2072069;28;20050;-50
2022/11/01 04:40:16;;;;;;;8.50;5.35;;;;;;;21.20;63.62;99407.66;2074869;28;20052;-49
2022/11/01 04:41:18;;;;;;;;;;;;;;;21.11;63.72;99411.56;2070282;28;20046;-50
2022/11/01 04:42:19;;;;;;;10.40;5.38;;;;;;;21.15;63.62;99414.72;2072516;28;19925;-50
2022/11/01 04:43:21;;;;;;;;;;;;;;;21.07;63.84;99417.56;2075403;28;20411;-50
2022/11/01 04:44:22;;;;;;;10.07;5.18;;;;;;;21.11;63.46;99411.56;2070528;28;19921;-51
2022/11/01 04:45:24;;;;;;;;;;;;;;;21.07;63.69;99414.88;2069952;28;20084;-51
2022/11/01 04:46:24;;;;;;;;;;;;;;;21.01;63.99;99403.03;2068662;28;20459;-51
2022/11/01 04:47:26;;;;;;;6.22;4.65;;;;;;;21.06;63.95;99411.34;2069866;28;19964;-50
2022/11/01 04:48:27;;;;;;;10.68;5.70;;;;;;;21.10;63.85;99406.38;2067886;28;20049;-52
2022/11/01 04:49:29;;;;;;;;;;;;;;;21.04;63.87;99404.50;2068157;28;21301;-52
2022/11/01 04:50:30;;;;;;;6.60;4.72;;;;;;;21.09;63.90;99410.09;2068867;28;20401;-50
2022/11/01 04:51:32;;;;;;;;;;;;;;;21.03;63.93;99400.09;2067633;28;20076;-50
2022/11/01 04:52:34;;;;;;;7.47;5.00;;;;;;;21.08;63.81;99406.56;2065620;28;19936;-52
2022/11/01 04:53:36;;;;;;;7.90;5.45;;;;;;;21.11;63.73;99403.47;2067696;28;20061;-51
2022/11/01 04:54:37;;;;;;;7.93;5.32;;;;;;;21.14;63.67;99397.66;2066233;28;20048;-51
2022/11/01 04:55:39;;;;;;;;;;;;;;;21.08;63.52;99403.88;2069543;28;20630;-51
2022/11/01 04:56:39;;;;;;;;;;;;;;;21.01;63.72;99408.41;2069136;28;20404;-51
2022/11/01 04:57:42;;;;;;;6.53;4.50;;;;;;;21.04;63.95;99402.63;2066860;28;19927;-49
2022/11/01 04:58:43;;;;;;;8.30;5.25;;;;;;;21.10;63.74;99407.22;2070591;28;20071;-52
2022/11/01 04:59:45;;;;;;;8.73;5.05;;;;;;;21.13;63.71;99408.66;2062623;28;20171;-51
2022/11/01 05:00:46;;;;;;;9.10;5.53;;;;;;;21.15;63.63;99404.75;2065825;28;20056;-50
2022/11/01 05:01:48;;;;;;;;;;;;;;;21.05;63.78;99404.28;2069402;28;20671;-49
2022/11/01 05:02:49;;;;;;;8.88;4.50;;;;;;;21.10;63.37;99409.91;2068825;28;19947;-50
2022/11/01 05:03:51;;;;;;;9.00;5.00;;;;;;;21.11;63.47;99414.25;2066737;28;20593;-49
2022/11/01 05:04:52;;;;;;;8.77;5.38;;;;;;;21.16;63.44;99410.97;2065781;28;20049;-51
2022/11/01 05:05:53;;;;;;;;;;;;;;;21.07;63.85;99406.78;2068222;28;20052;-50
2022/11/01 05:06:54;;;;;;;9.45;4.82;;;;;;;21.09;63.80;99410.09;2064898;28;20995;-52
2022/11/01 05:08:01;;;;;;;;;;;;;;;21.01;64.03;99405.72;2069905;28;20053;-50
2022/11/01 05:09:03;;;;;;;8.43;4.65;;;;;;;21.06;63.63;99405.97;2066941;28;19925;-49
2022/11/01 05:10:05;;;;;;;8.32;5.13;;;;;;;21.11;63.95;99411.56;2065776;28;20686;-50
2022/11/01 05:11:07;;;;;;;9.43;5.47;;;;;;;21.11;63.38;99408.84;2065092;28;20084;-50